sensor_id;sensor_type;location;lat;lon;timestamp;pressure;altitude;pressure_sealevel;temperature;humidity
9249;BME280;4660;41.768;26.198;2022-10-23T00:00:03;101300.78;;;10.29;100.00
9249;BME280;4660;41.768;26.198;2022-10-23T00:02:29;101303.97;;;10.00;100.00
9249;BME280;4660;41.768;26.198;2022-10-23T00:04:54;101309.22;;;10.02;100.00
9249;BME280;4660;41.768;26.198;2022-10-23T00:07:20;101298.59;;;10.00;100.00
9249;BME280;4660;41.768;26.198;2022-10-23T00:09:45;101301.75;;;10.16;100.00
9249;BME280;4660;41.768;26.198;2022-10-23T00:12:11;101305.19;;;9.74;100.00
9249;BME280;4660;41.768;26.198;2022-10-23T00:14:36;101298.56;;;9.78;100.00
9249;BME280;4660;41.768;26.198;2022-10-23T00:17:02;101298.56;;;9.89;100.00
9249;BME280;4660;41.768;26.198;2022-10-23T00:19:27;101297.84;;;9.98;100.00
9249;BME280;4660;41.768;26.198;2022-10-23T00:21:53;101302.50;;;10.07;100.00
9249;BME280;4660;41.768;26.198;2022-10-23T00:24:18;101299.91;;;10.06;100.00
9249;BME280;4660;41.768;26.198;2022-10-23T00:26:44;101292.25;;;9.79;100.00
9249;BME280;4660;41.768;26.198;2022-10-23T00:29:10;101280.97;;;9.62;100.00
9249;BME280;4660;41.768;26.198;2022-10-23T00:31:36;101278.16;;;9.64;100.00
9249;BME280;4660;41.768;26.198;2022-10-23T00:34:01;101284.66;;;9.61;100.00
9249;BME280;4660;41.768;26.198;2022-10-23T00:36:28;101279.53;;;9.58;100.00
9249;BME280;4660;41.768;26.198;2022-10-23T00:38:54;101291.34;;;9.56;100.00
9249;BME280;4660;41.768;26.198;2022-10-23T00:41:25;101291.00;;;9.60;100.00
9249;BME280;4660;41.768;26.198;2022-10-23T00:44:09;101286.69;;;9.47;100.00
9249;BME280;4660;41.768;26.198;2022-10-23T00:46:36;101267.06;;;9.46;100.00
9249;BME280;4660;41.768;26.198;2022-10-23T00:49:03;101275.13;;;9.57;100.00
9249;BME280;4660;41.768;26.198;2022-10-23T00:51:37;101270.22;;;9.40;100.00
9249;BME280;4660;41.768;26.198;2022-10-23T00:54:03;101275.09;;;9.46;100.00
9249;BME280;4660;41.768;26.198;2022-10-23T00:56:30;101259.00;;;9.46;100.00
9249;BME280;4660;41.768;26.198;2022-10-23T00:58:58;101270.22;;;9.40;100.00
9249;BME280;4660;41.768;26.198;2022-10-23T01:01:23;101267.06;;;9.46;100.00
9249;BME280;4660;41.768;26.198;2022-10-23T01:03:50;101268.50;;;9.39;100.00
9249;BME280;4660;41.768;26.198;2022-10-23T01:11:11;101256.06;;;9.38;100.00
9249;BME280;4660;41.768;26.198;2022-10-23T01:13:48;101270.69;;;9.34;100.00
9249;BME280;4660;41.768;26.198;2022-10-23T01:16:24;101262.94;;;9.07;100.00
9249;BME280;4660;41.768;26.198;2022-10-23T01:19:19;101274.59;;;9.30;100.00
9249;BME280;4660;41.768;26.198;2022-10-23T01:22:10;101269.72;;;9.35;100.00
9249;BME280;4660;41.768;26.198;2022-10-23T01:24:57;101270.22;;;9.40;100.00
9249;BME280;4660;41.768;26.198;2022-10-23T01:27:31;101253.00;;;9.31;100.00
9249;BME280;4660;41.768;26.198;2022-10-23T01:30:10;101276.75;;;9.14;100.00
9249;BME280;4660;41.768;26.198;2022-10-23T01:33:01;101281.94;;;8.93;100.00
9249;BME280;4660;41.768;26.198;2022-10-23T01:35:39;101270.13;;;8.95;100.00
9249;BME280;4660;41.768;26.198;2022-10-23T01:38:13;101272.38;;;8.77;100.00
9249;BME280;4660;41.768;26.198;2022-10-23T01:40:55;101263.28;;;8.91;100.00
9249;BME280;4660;41.768;26.198;2022-10-23T01:43:29;101254.94;;;9.18;100.00
9249;BME280;4660;41.768;26.198;2022-10-23T01:46:01;101256.28;;;9.24;100.00
9249;BME280;4660;41.768;26.198;2022-10-23T01:48:28;101250.91;;;9.24;100.00
9249;BME280;4660;41.768;26.198;2022-10-23T01:50:59;101233.19;;;9.10;100.00
9249;BME280;4660;41.768;26.198;2022-10-23T01:53:28;101240.19;;;9.35;100.00
9249;BME280;4660;41.768;26.198;2022-10-23T01:55:57;101248.72;;;9.40;100.00
9249;BME280;4660;41.768;26.198;2022-10-23T01:58:25;101243.81;;;9.12;100.00
9249;BME280;4660;41.768;26.198;2022-10-23T02:00:56;101253.56;;;8.66;100.00
9249;BME280;4660;41.768;26.198;2022-10-23T02:03:23;101251.38;;;8.71;100.00
9249;BME280;4660;41.768;26.198;2022-10-23T02:05:51;101256.19;;;8.90;100.00
9249;BME280;4660;41.768;26.198;2022-10-23T02:08:17;101257.09;;;9.02;100.00
9249;BME280;4660;41.768;26.198;2022-10-23T02:13:38;101263.31;;;9.14;100.00
9249;BME280;4660;41.768;26.198;2022-10-23T02:16:21;101268.84;;;9.23;100.00
9249;BME280;4660;41.768;26.198;2022-10-23T02:19:15;101275.63;;;8.94;100.00
9249;BME280;4660;41.768;26.198;2022-10-23T02:21:52;101274.97;;;8.79;100.00
9249;BME280;4660;41.768;26.198;2022-10-23T02:24:28;101284.25;;;8.86;100.00
9249;BME280;4660;41.768;26.198;2022-10-23T02:26:58;101284.44;;;8.72;100.00
9249;BME280;4660;41.768;26.198;2022-10-23T02:29:27;101284.19;;;8.75;100.00
9249;BME280;4660;41.768;26.198;2022-10-23T02:31:54;101288.84;;;9.08;100.00
9249;BME280;4660;41.768;26.198;2022-10-23T02:34:20;101282.88;;;9.16;100.00
9249;BME280;4660;41.768;26.198;2022-10-23T02:36:45;101276.06;;;9.23;100.00
9249;BME280;4660;41.768;26.198;2022-10-23T02:39:11;101274.56;;;9.19;100.00
9249;BME280;4660;41.768;26.198;2022-10-23T02:41:46;101285.03;;;9.10;100.00
9249;BME280;4660;41.768;26.198;2022-10-23T02:50:09;101263.44;;;9.01;100.00
9249;BME280;4660;41.768;26.198;2022-10-23T03:00:36;101280.41;;;8.77;100.00
9249;BME280;4660;41.768;26.198;2022-10-23T03:03:08;101282.59;;;8.72;100.00
9249;BME280;4660;41.768;26.198;2022-10-23T03:05:38;101275.31;;;8.50;100.00
9249;BME280;4660;41.768;26.198;2022-10-23T03:08:07;101247.00;;;8.46;100.00
9249;BME280;4660;41.768;26.198;2022-10-23T03:10:33;101273.78;;;8.59;100.00
9249;BME280;4660;41.768;26.198;2022-10-23T03:12:59;101291.78;;;8.57;100.00
9249;BME280;4660;41.768;26.198;2022-10-23T03:15:24;101309.06;;;8.16;100.00
9249;BME280;4660;41.768;26.198;2022-10-23T03:17:50;101299.78;;;8.33;100.00
9249;BME280;4660;41.768;26.198;2022-10-23T03:20:15;101304.13;;;8.23;100.00
9249;BME280;4660;41.768;26.198;2022-10-23T03:22:41;101299.13;;;8.42;100.00
9249;BME280;4660;41.768;26.198;2022-10-23T03:25:07;101303.75;;;8.40;100.00
9249;BME280;4660;41.768;26.198;2022-10-23T03:27:33;101312.03;;;8.24;100.00
9249;BME280;4660;41.768;26.198;2022-10-23T03:29:58;101300.34;;;7.76;100.00
9249;BME280;4660;41.768;26.198;2022-10-23T03:32:24;101287.84;;;7.51;100.00
9249;BME280;4660;41.768;26.198;2022-10-23T03:34:50;101312.13;;;7.48;100.00
9249;BME280;4660;41.768;26.198;2022-10-23T03:37:15;101316.88;;;7.44;100.00
9249;BME280;4660;41.768;26.198;2022-10-23T03:39:41;101327.03;;;7.39;100.00
9249;BME280;4660;41.768;26.198;2022-10-23T03:42:06;101325.88;;;7.43;100.00
9249;BME280;4660;41.768;26.198;2022-10-23T03:44:32;101325.00;;;7.56;100.00
9249;BME280;4660;41.768;26.198;2022-10-23T03:46:58;101326.06;;;7.79;100.00
9249;BME280;4660;41.768;26.198;2022-10-23T03:49:24;101332.19;;;7.68;100.00
9249;BME280;4660;41.768;26.198;2022-10-23T03:51:49;101339.34;;;7.80;100.00
9249;BME280;4660;41.768;26.198;2022-10-23T03:54:26;101338.19;;;7.59;100.00
9249;BME280;4660;41.768;26.198;2022-10-23T03:56:53;101335.09;;;7.65;100.00
9249;BME280;4660;41.768;26.198;2022-10-23T03:59:18;101336.88;;;7.77;100.00
9249;BME280;4660;41.768;26.198;2022-10-23T04:01:44;101325.19;;;7.91;100.00
9249;BME280;4660;41.768;26.198;2022-10-23T04:04:11;101327.53;;;7.95;100.00
9249;BME280;4660;41.768;26.198;2022-10-23T04:06:37;101326.47;;;7.98;100.00
9249;BME280;4660;41.768;26.198;2022-10-23T04:09:03;101333.94;;;8.06;100.00
9249;BME280;4660;41.768;26.198;2022-10-23T04:11:29;101344.47;;;8.09;100.00
9249;BME280;4660;41.768;26.198;2022-10-23T04:13:55;101350.69;;;7.96;100.00
9249;BME280;4660;41.768;26.198;2022-10-23T04:16:21;101341.06;;;7.94;100.00
9249;BME280;4660;41.768;26.198;2022-10-23T04:18:46;101353.72;;;7.66;100.00
9249;BME280;4660;41.768;26.198;2022-10-23T04:21:12;101356.38;;;7.54;100.00
9249;BME280;4660;41.768;26.198;2022-10-23T04:23:37;101346.19;;;7.33;100.00
9249;BME280;4660;41.768;26.198;2022-10-23T04:26:03;101356.25;;;7.42;100.00
9249;BME280;4660;41.768;26.198;2022-10-23T04:28:29;101360.97;;;7.39;100.00
9249;BME280;4660;41.768;26.198;2022-10-23T04:30:54;101359.38;;;7.36;100.00
9249;BME280;4660;41.768;26.198;2022-10-23T04:33:20;101362.13;;;7.35;100.00
9249;BME280;4660;41.768;26.198;2022-10-23T04:35:45;101350.84;;;7.04;100.00
9249;BME280;4660;41.768;26.198;2022-10-23T04:38:11;101349.97;;;7.04;100.00
9249;BME280;4660;41.768;26.198;2022-10-23T04:40:36;101351.69;;;7.05;100.00
9249;BME280;4660;41.768;26.198;2022-10-23T04:43:03;101347.84;;;7.09;100.00
9249;BME280;4660;41.768;26.198;2022-10-23T04:45:28;101328.88;;;6.99;100.00
9249;BME280;4660;41.768;26.198;2022-10-23T04:47:54;101353.06;;;7.37;100.00
9249;BME280;4660;41.768;26.198;2022-10-23T04:50:21;101355.09;;;7.59;100.00
9249;BME280;4660;41.768;26.198;2022-10-23T04:52:46;101346.00;;;7.87;100.00
9249;BME280;4660;41.768;26.198;2022-10-23T04:55:13;101349.09;;;7.94;100.00
9249;BME280;4660;41.768;26.198;2022-10-23T04:57:38;101347.69;;;7.88;100.00
9249;BME280;4660;41.768;26.198;2022-10-23T05:00:06;101353.91;;;7.89;100.00
9249;BME280;4660;41.768;26.198;2022-10-23T05:02:32;101349.09;;;7.81;100.00
9249;BME280;4660;41.768;26.198;2022-10-23T05:04:57;101362.25;;;7.84;100.00
9249;BME280;4660;41.768;26.198;2022-10-23T05:07:23;101364.09;;;7.96;100.00
9249;BME280;4660;41.768;26.198;2022-10-23T05:09:49;101358.59;;;8.23;100.00
9249;BME280;4660;41.768;26.198;2022-10-23T05:12:14;101360.84;;;8.30;100.00
9249;BME280;4660;41.768;26.198;2022-10-23T05:14:40;101357.91;;;8.45;100.00
9249;BME280;4660;41.768;26.198;2022-10-23T05:17:10;101373.06;;;8.70;100.00
9249;BME280;4660;41.768;26.198;2022-10-23T05:19:42;101362.28;;;8.83;100.00
9249;BME280;4660;41.768;26.198;2022-10-23T05:22:11;101361.19;;;8.86;100.00
9249;BME280;4660;41.768;26.198;2022-10-23T05:24:37;101374.25;;;8.90;100.00
9249;BME280;4660;41.768;26.198;2022-10-23T05:27:03;101385.44;;;8.84;100.00
9249;BME280;4660;41.768;26.198;2022-10-23T05:29:28;101375.66;;;8.72;100.00
9249;BME280;4660;41.768;26.198;2022-10-23T05:31:58;101398.56;;;8.76;100.00
9249;BME280;4660;41.768;26.198;2022-10-23T05:34:26;101396.19;;;8.84;100.00
9249;BME280;4660;41.768;26.198;2022-10-23T05:36:53;101393.78;;;8.92;100.00
9249;BME280;4660;41.768;26.198;2022-10-23T05:39:19;101387.75;;;9.01;100.00
9249;BME280;4660;41.768;26.198;2022-10-23T05:41:45;101390.19;;;9.04;100.00
9249;BME280;4660;41.768;26.198;2022-10-23T05:44:11;101388.44;;;9.16;100.00
9249;BME280;4660;41.768;26.198;2022-10-23T05:46:40;101406.19;;;9.30;100.00
9249;BME280;4660;41.768;26.198;2022-10-23T05:49:06;101402.78;;;9.39;100.00
9249;BME280;4660;41.768;26.198;2022-10-23T05:51:35;101397.94;;;9.44;100.00
9249;BME280;4660;41.768;26.198;2022-10-23T05:54:01;101395.50;;;9.52;100.00
9249;BME280;4660;41.768;26.198;2022-10-23T05:56:26;101408.56;;;9.57;100.00
9249;BME280;4660;41.768;26.198;2022-10-23T05:58:52;101417.41;;;9.70;100.00
9249;BME280;4660;41.768;26.198;2022-10-23T06:01:17;101413.63;;;9.84;100.00
9249;BME280;4660;41.768;26.198;2022-10-23T06:03:43;101416.84;;;9.89;100.00
9249;BME280;4660;41.768;26.198;2022-10-23T06:06:09;101415.13;;;9.99;100.00
9249;BME280;4660;41.768;26.198;2022-10-23T06:08:35;101426.16;;;10.07;100.00
9249;BME280;4660;41.768;26.198;2022-10-23T06:11:08;101429.50;;;9.64;100.00
9249;BME280;4660;41.768;26.198;2022-10-23T06:13:35;101427.22;;;9.47;100.00
9249;BME280;4660;41.768;26.198;2022-10-23T06:16:14;101399.66;;;9.56;100.00
9249;BME280;4660;41.768;26.198;2022-10-23T06:18:40;101421.63;;;10.08;100.00
9249;BME280;4660;41.768;26.198;2022-10-23T06:21:06;101420.81;;;10.30;100.00
9249;BME280;4660;41.768;26.198;2022-10-23T06:23:33;101405.91;;;10.37;100.00
9249;BME280;4660;41.768;26.198;2022-10-23T06:25:59;101415.41;;;10.63;100.00
9249;BME280;4660;41.768;26.198;2022-10-23T06:28:25;101416.38;;;10.62;100.00
9249;BME280;4660;41.768;26.198;2022-10-23T06:30:50;101414.84;;;10.92;100.00
9249;BME280;4660;41.768;26.198;2022-10-23T06:33:16;101416.53;;;11.04;100.00
9249;BME280;4660;41.768;26.198;2022-10-23T06:35:41;101420.44;;;11.11;100.00
9249;BME280;4660;41.768;26.198;2022-10-23T06:38:08;101432.84;;;10.91;100.00
9249;BME280;4660;41.768;26.198;2022-10-23T06:40:35;101434.59;;;11.24;100.00
9249;BME280;4660;41.768;26.198;2022-10-23T06:43:02;101430.56;;;11.51;100.00
9249;BME280;4660;41.768;26.198;2022-10-23T06:45:28;101435.88;;;11.62;100.00
9249;BME280;4660;41.768;26.198;2022-10-23T06:47:58;101432.72;;;11.78;100.00
9249;BME280;4660;41.768;26.198;2022-10-23T06:50:24;101426.47;;;11.89;100.00
9249;BME280;4660;41.768;26.198;2022-10-23T06:52:50;101424.47;;;12.11;100.00
9249;BME280;4660;41.768;26.198;2022-10-23T06:55:16;101435.75;;;12.26;100.00
9249;BME280;4660;41.768;26.198;2022-10-23T06:57:42;101439.91;;;12.30;100.00
9249;BME280;4660;41.768;26.198;2022-10-23T07:00:08;101425.72;;;12.38;100.00
9249;BME280;4660;41.768;26.198;2022-10-23T07:02:34;101429.16;;;12.50;100.00
9249;BME280;4660;41.768;26.198;2022-10-23T07:04:59;101433.22;;;12.65;100.00
9249;BME280;4660;41.768;26.198;2022-10-23T07:07:25;101432.94;;;12.78;100.00
9249;BME280;4660;41.768;26.198;2022-10-23T07:09:50;101438.66;;;12.84;100.00
9249;BME280;4660;41.768;26.198;2022-10-23T07:12:16;101448.34;;;12.87;100.00
9249;BME280;4660;41.768;26.198;2022-10-23T07:14:41;101442.94;;;12.87;100.00
9249;BME280;4660;41.768;26.198;2022-10-23T07:17:07;101440.56;;;13.03;100.00
9249;BME280;4660;41.768;26.198;2022-10-23T07:19:32;101434.56;;;13.00;100.00
9249;BME280;4660;41.768;26.198;2022-10-23T07:21:58;101431.91;;;13.19;100.00
9249;BME280;4660;41.768;26.198;2022-10-23T07:24:23;101428.25;;;13.39;100.00
9249;BME280;4660;41.768;26.198;2022-10-23T07:26:49;101435.06;;;13.63;100.00
9249;BME280;4660;41.768;26.198;2022-10-23T07:29:14;101438.75;;;13.81;100.00
9249;BME280;4660;41.768;26.198;2022-10-23T07:31:40;101439.91;;;13.69;100.00
9249;BME280;4660;41.768;26.198;2022-10-23T07:34:06;101434.16;;;14.01;100.00
9249;BME280;4660;41.768;26.198;2022-10-23T07:36:31;101430.56;;;14.10;100.00
9249;BME280;4660;41.768;26.198;2022-10-23T07:38:57;101421.25;;;14.32;100.00
9249;BME280;4660;41.768;26.198;2022-10-23T07:41:22;101424.34;;;14.47;100.00
9249;BME280;4660;41.768;26.198;2022-10-23T07:43:48;101424.28;;;14.56;100.00
9249;BME280;4660;41.768;26.198;2022-10-23T07:46:14;101422.19;;;14.78;100.00
9249;BME280;4660;41.768;26.198;2022-10-23T07:48:39;101411.84;;;14.91;100.00
9249;BME280;4660;41.768;26.198;2022-10-23T07:51:12;101425.19;;;15.02;100.00
9249;BME280;4660;41.768;26.198;2022-10-23T07:53:38;101422.56;;;15.28;100.00
9249;BME280;4660;41.768;26.198;2022-10-23T07:56:16;101414.75;;;15.25;100.00
9249;BME280;4660;41.768;26.198;2022-10-23T07:58:42;101412.50;;;15.38;100.00
9249;BME280;4660;41.768;26.198;2022-10-23T08:01:19;101405.72;;;15.60;100.00
9249;BME280;4660;41.768;26.198;2022-10-23T08:03:48;101398.69;;;15.67;100.00
9249;BME280;4660;41.768;26.198;2022-10-23T08:06:13;101425.19;;;15.74;100.00
9249;BME280;4660;41.768;26.198;2022-10-23T08:08:39;101417.19;;;15.90;100.00
9249;BME280;4660;41.768;26.198;2022-10-23T08:11:05;101408.19;;;16.15;100.00
9249;BME280;4660;41.768;26.198;2022-10-23T08:13:30;101412.72;;;16.41;98.51
9249;BME280;4660;41.768;26.198;2022-10-23T08:15:56;101393.44;;;16.52;97.71
9249;BME280;4660;41.768;26.198;2022-10-23T08:18:22;101415.84;;;16.54;97.90
9249;BME280;4660;41.768;26.198;2022-10-23T08:20:48;101404.84;;;16.64;97.29
9249;BME280;4660;41.768;26.198;2022-10-23T08:23:17;101410.38;;;16.72;96.66
9249;BME280;4660;41.768;26.198;2022-10-23T08:25:44;101420.13;;;17.07;95.71
9249;BME280;4660;41.768;26.198;2022-10-23T08:28:10;101400.09;;;17.08;96.71
9249;BME280;4660;41.768;26.198;2022-10-23T08:30:36;101391.59;;;17.36;94.76
9249;BME280;4660;41.768;26.198;2022-10-23T08:33:05;101391.47;;;17.45;92.33
9249;BME280;4660;41.768;26.198;2022-10-23T08:35:35;101389.75;;;17.60;92.33
9249;BME280;4660;41.768;26.198;2022-10-23T08:38:02;101387.22;;;17.59;91.53
9249;BME280;4660;41.768;26.198;2022-10-23T08:40:27;101387.88;;;17.69;91.81
9249;BME280;4660;41.768;26.198;2022-10-23T08:43:00;101390.97;;;17.74;91.37
9249;BME280;4660;41.768;26.198;2022-10-23T08:48:07;101394.63;;;18.14;88.65
9249;BME280;4660;41.768;26.198;2022-10-23T08:50:44;101388.75;;;18.41;85.68
9249;BME280;4660;41.768;26.198;2022-10-23T08:53:29;101375.53;;;18.69;84.27
9249;BME280;4660;41.768;26.198;2022-10-23T08:56:11;101370.97;;;18.93;83.35
9249;BME280;4660;41.768;26.198;2022-10-23T09:01:39;101351.81;;;19.09;81.44
9249;BME280;4660;41.768;26.198;2022-10-23T09:04:10;101364.47;;;19.25;82.63
9249;BME280;4660;41.768;26.198;2022-10-23T09:19:53;101371.56;;;20.54;75.25
9249;BME280;4660;41.768;26.198;2022-10-23T09:22:20;101370.13;;;20.73;72.94
9249;BME280;4660;41.768;26.198;2022-10-23T09:24:45;101363.38;;;21.11;70.73
9249;BME280;4660;41.768;26.198;2022-10-23T09:27:15;101362.81;;;21.59;67.66
9249;BME280;4660;41.768;26.198;2022-10-23T09:29:53;101361.38;;;21.63;66.38
9249;BME280;4660;41.768;26.198;2022-10-23T09:32:19;101359.00;;;21.81;63.98
9249;BME280;4660;41.768;26.198;2022-10-23T09:34:56;101369.25;;;22.07;60.15
9249;BME280;4660;41.768;26.198;2022-10-23T09:37:25;101366.09;;;22.32;59.59
9249;BME280;4660;41.768;26.198;2022-10-23T09:40:14;101371.50;;;22.60;57.28
9249;BME280;4660;41.768;26.198;2022-10-23T09:42:53;101375.72;;;22.62;55.65
9249;BME280;4660;41.768;26.198;2022-10-23T09:45:24;101356.16;;;22.78;55.37
9249;BME280;4660;41.768;26.198;2022-10-23T09:48:05;101356.25;;;22.98;54.21
9249;BME280;4660;41.768;26.198;2022-10-23T09:50:34;101356.03;;;23.00;53.09
9249;BME280;4660;41.768;26.198;2022-10-23T09:52:59;101357.28;;;22.97;52.18
9249;BME280;4660;41.768;26.198;2022-10-23T09:55:26;101353.97;;;23.15;50.77
9249;BME280;4660;41.768;26.198;2022-10-23T09:57:52;101349.75;;;23.26;50.46
9249;BME280;4660;41.768;26.198;2022-10-23T10:00:23;101348.47;;;23.42;49.90
9249;BME280;4660;41.768;26.198;2022-10-23T10:03:04;101358.41;;;23.43;49.50
9249;BME280;4660;41.768;26.198;2022-10-23T10:05:35;101349.56;;;23.47;49.71
9249;BME280;4660;41.768;26.198;2022-10-23T10:10:40;101344.91;;;23.54;48.58
9249;BME280;4660;41.768;26.198;2022-10-23T10:16:17;101336.47;;;23.76;47.76
9249;BME280;4660;41.768;26.198;2022-10-23T10:24:22;101322.00;;;24.20;48.45
9249;BME280;4660;41.768;26.198;2022-10-23T10:32:44;101299.41;;;24.63;48.80
9249;BME280;4660;41.768;26.198;2022-10-23T10:46:44;101283.34;;;25.30;45.63
9249;BME280;4660;41.768;26.198;2022-10-23T10:52:17;101275.25;;;25.28;46.00
9249;BME280;4660;41.768;26.198;2022-10-23T10:54:58;101271.00;;;25.32;45.68
9249;BME280;4660;41.768;26.198;2022-10-23T10:57:39;101268.75;;;25.47;45.48
9249;BME280;4660;41.768;26.198;2022-10-23T11:00:20;101262.09;;;25.55;44.48
9249;BME280;4660;41.768;26.198;2022-10-23T11:05:30;101258.06;;;25.58;43.50
9249;BME280;4660;41.768;26.198;2022-10-23T11:08:38;101248.72;;;25.59;44.78
9249;BME280;4660;41.768;26.198;2022-10-23T11:11:21;101250.56;;;25.65;43.70
9249;BME280;4660;41.768;26.198;2022-10-23T11:13:49;101255.03;;;25.84;42.81
9249;BME280;4660;41.768;26.198;2022-10-23T11:16:36;101249.78;;;26.01;43.34
9249;BME280;4660;41.768;26.198;2022-10-23T11:24:26;101233.44;;;26.18;42.05
9249;BME280;4660;41.768;26.198;2022-10-23T11:32:46;101227.00;;;26.05;43.11
9249;BME280;4660;41.768;26.198;2022-10-23T11:35:52;101226.84;;;26.19;43.44
9249;BME280;4660;41.768;26.198;2022-10-23T11:38:29;101225.00;;;26.13;42.27
9249;BME280;4660;41.768;26.198;2022-10-23T11:40:59;101211.94;;;26.08;40.87
9249;BME280;4660;41.768;26.198;2022-10-23T11:43:30;101215.56;;;26.20;41.32
9249;BME280;4660;41.768;26.198;2022-10-23T11:46:10;101212.56;;;26.40;40.84
9249;BME280;4660;41.768;26.198;2022-10-23T11:48:39;101213.03;;;26.37;40.72
9249;BME280;4660;41.768;26.198;2022-10-23T11:51:25;101221.94;;;26.39;39.07
9249;BME280;4660;41.768;26.198;2022-10-23T11:53:51;101213.41;;;26.41;39.31
9249;BME280;4660;41.768;26.198;2022-10-23T11:58:55;101208.28;;;26.44;39.41
9249;BME280;4660;41.768;26.198;2022-10-23T12:01:38;101204.34;;;26.52;39.20
9249;BME280;4660;41.768;26.198;2022-10-23T12:06:58;101197.31;;;26.38;40.24
9249;BME280;4660;41.768;26.198;2022-10-23T12:09:42;101190.50;;;26.40;39.79
9249;BME280;4660;41.768;26.198;2022-10-23T12:14:38;101203.66;;;26.38;40.79
9249;BME280;4660;41.768;26.198;2022-10-23T12:17:39;101199.06;;;26.32;40.17
9249;BME280;4660;41.768;26.198;2022-10-23T12:25:40;101197.88;;;26.58;39.22
9249;BME280;4660;41.768;26.198;2022-10-23T12:38:48;101194.84;;;26.48;39.83
9249;BME280;4660;41.768;26.198;2022-10-23T12:41:29;101200.13;;;26.49;39.98
9249;BME280;4660;41.768;26.198;2022-10-23T12:43:57;101199.19;;;26.55;40.03
9249;BME280;4660;41.768;26.198;2022-10-23T12:46:53;101206.75;;;26.60;40.48
9249;BME280;4660;41.768;26.198;2022-10-23T12:49:23;101201.38;;;26.65;40.27
9249;BME280;4660;41.768;26.198;2022-10-23T12:52:02;101196.47;;;26.67;39.92
9249;BME280;4660;41.768;26.198;2022-10-23T12:54:32;101207.66;;;26.72;40.39
9249;BME280;4660;41.768;26.198;2022-10-23T12:57:26;101203.81;;;26.73;40.44
9249;BME280;4660;41.768;26.198;2022-10-23T12:59:56;101183.84;;;26.59;40.36
9249;BME280;4660;41.768;26.198;2022-10-23T13:02:27;101194.06;;;26.59;40.21
9249;BME280;4660;41.768;26.198;2022-10-23T13:04:55;101190.75;;;26.50;40.35
9249;BME280;4660;41.768;26.198;2022-10-23T13:07:30;101204.34;;;26.52;40.59
9249;BME280;4660;41.768;26.198;2022-10-23T13:09:58;101195.72;;;26.60;39.65
9249;BME280;4660;41.768;26.198;2022-10-23T13:12:28;101198.88;;;26.75;40.00
9249;BME280;4660;41.768;26.198;2022-10-23T13:22:58;101186.22;;;26.44;40.37
9249;BME280;4660;41.768;26.198;2022-10-23T13:30:35;101194.94;;;26.41;40.47
9249;BME280;4660;41.768;26.198;2022-10-23T13:33:13;101188.97;;;26.56;39.38
9249;BME280;4660;41.768;26.198;2022-10-23T13:35:39;101195.63;;;26.67;38.35
9249;BME280;4660;41.768;26.198;2022-10-23T13:38:09;101189.16;;;26.73;38.62
9249;BME280;4660;41.768;26.198;2022-10-23T13:40:34;101202.47;;;26.76;39.05
9249;BME280;4660;41.768;26.198;2022-10-23T13:43:00;101197.31;;;26.68;40.16
9249;BME280;4660;41.768;26.198;2022-10-23T13:45:26;101200.66;;;26.58;40.07
9249;BME280;4660;41.768;26.198;2022-10-23T13:47:51;101209.78;;;26.58;40.17
9249;BME280;4660;41.768;26.198;2022-10-23T13:50:18;101211.78;;;26.51;40.38
9249;BME280;4660;41.768;26.198;2022-10-23T13:52:44;101213.03;;;26.37;40.28
9249;BME280;4660;41.768;26.198;2022-10-23T13:55:22;101217.91;;;26.35;40.45
9249;BME280;4660;41.768;26.198;2022-10-23T13:57:48;101218.53;;;26.37;39.81
9249;BME280;4660;41.768;26.198;2022-10-23T14:00:14;101212.78;;;26.39;39.62
9249;BME280;4660;41.768;26.198;2022-10-23T14:02:40;101209.97;;;26.45;39.80
9249;BME280;4660;41.768;26.198;2022-10-23T14:05:06;101214.41;;;26.46;39.99
9249;BME280;4660;41.768;26.198;2022-10-23T14:07:32;101221.00;;;26.45;39.68
9249;BME280;4660;41.768;26.198;2022-10-23T14:09:57;101211.25;;;26.43;39.75
9249;BME280;4660;41.768;26.198;2022-10-23T14:12:23;101212.09;;;26.43;39.50
9249;BME280;4660;41.768;26.198;2022-10-23T14:14:52;101226.88;;;26.49;39.82
9249;BME280;4660;41.768;26.198;2022-10-23T14:17:19;101213.56;;;26.57;39.26
9249;BME280;4660;41.768;26.198;2022-10-23T14:19:45;101207.44;;;26.44;39.00
9249;BME280;4660;41.768;26.198;2022-10-23T14:22:11;101211.72;;;26.21;39.71
9249;BME280;4660;41.768;26.198;2022-10-23T14:24:36;101215.53;;;26.09;39.80
9249;BME280;4660;41.768;26.198;2022-10-23T14:27:02;101210.25;;;25.89;40.00
9249;BME280;4660;41.768;26.198;2022-10-23T14:29:28;101212.47;;;25.80;40.13
9249;BME280;4660;41.768;26.198;2022-10-23T14:31:53;101223.72;;;25.78;37.98
9249;BME280;4660;41.768;26.198;2022-10-23T14:34:19;101236.22;;;25.81;37.03
9249;BME280;4660;41.768;26.198;2022-10-23T14:36:44;101228.53;;;25.83;36.84
9249;BME280;4660;41.768;26.198;2022-10-23T14:39:10;101233.81;;;25.85;36.67
9249;BME280;4660;41.768;26.198;2022-10-23T14:41:35;101239.34;;;25.85;36.38
9249;BME280;4660;41.768;26.198;2022-10-23T14:44:03;101240.19;;;25.85;36.67
9249;BME280;4660;41.768;26.198;2022-10-23T14:46:29;101239.88;;;25.75;36.86
9249;BME280;4660;41.768;26.198;2022-10-23T14:48:54;101238.00;;;25.69;36.92
9249;BME280;4660;41.768;26.198;2022-10-23T14:51:22;101238.44;;;25.47;37.16
9249;BME280;4660;41.768;26.198;2022-10-23T14:53:52;101240.94;;;25.31;37.51
9249;BME280;4660;41.768;26.198;2022-10-23T14:56:19;101237.00;;;25.20;37.74
9249;BME280;4660;41.768;26.198;2022-10-23T14:58:44;101243.97;;;25.22;37.60
9249;BME280;4660;41.768;26.198;2022-10-23T15:01:10;101247.53;;;25.30;37.26
9249;BME280;4660;41.768;26.198;2022-10-23T15:03:35;101246.44;;;25.31;37.09
9249;BME280;4660;41.768;26.198;2022-10-23T15:06:01;101248.19;;;25.25;37.38
9249;BME280;4660;41.768;26.198;2022-10-23T15:08:27;101255.84;;;25.23;37.44
9249;BME280;4660;41.768;26.198;2022-10-23T15:10:52;101260.75;;;25.14;37.61